createdAt,value
2019-04-12T00:02:19.294Z,99.90
2019-04-12T00:04:53.572Z,99.90
2019-04-12T00:07:27.071Z,99.90
2019-04-12T00:10:00.637Z,99.90
2019-04-12T00:12:34.172Z,99.90
2019-04-12T00:15:11.726Z,99.90
2019-04-12T00:17:44.236Z,99.90
2019-04-12T00:20:16.039Z,99.90
2019-04-12T00:22:49.611Z,99.90
2019-04-12T00:25:23.419Z,99.90
2019-04-12T00:27:57.005Z,99.90
2019-04-12T00:30:30.719Z,99.90
2019-04-12T00:33:04.323Z,99.90
2019-04-12T00:35:38.654Z,99.90
2019-04-12T00:38:12.223Z,99.90
2019-04-12T00:40:45.839Z,99.90
2019-04-12T00:43:19.419Z,99.90
2019-04-12T00:45:53.052Z,99.90
2019-04-12T00:48:26.761Z,99.90
2019-04-12T00:51:00.496Z,99.90
2019-04-12T00:53:34.138Z,99.90
2019-04-12T00:56:07.786Z,99.90
2019-04-12T00:58:41.439Z,99.90
2019-04-12T01:01:19.317Z,99.90
2019-04-12T01:03:53.490Z,99.90
2019-04-12T01:06:27.163Z,99.90
2019-04-12T01:09:00.964Z,99.90
2019-04-12T01:11:34.602Z,99.90
2019-04-12T01:14:09.003Z,99.90
2019-04-12T01:16:43.451Z,99.90
2019-04-12T01:19:17.180Z,99.90
2019-04-12T01:21:50.747Z,99.90
2019-04-12T01:24:24.355Z,99.90
2019-04-12T01:26:58.644Z,99.90
2019-04-12T01:29:32.380Z,99.90
2019-04-12T01:32:06.145Z,99.90
2019-04-12T01:34:39.816Z,99.90
2019-04-12T01:37:13.383Z,99.90
2019-04-12T01:39:46.909Z,99.90
2019-04-12T01:42:20.972Z,99.90
2019-04-12T01:44:54.607Z,99.90
2019-04-12T01:47:28.304Z,99.90
2019-04-12T01:50:01.841Z,99.90
2019-04-12T01:52:35.614Z,99.90
2019-04-12T01:55:09.497Z,99.90
2019-04-12T01:57:42.848Z,99.90
2019-04-12T02:00:17.124Z,99.90
2019-04-12T02:02:51.954Z,99.90
2019-04-12T02:05:25.555Z,99.90
2019-04-12T02:07:59.585Z,99.90
2019-04-12T02:10:33.194Z,99.90
2019-04-12T02:13:06.804Z,99.90
2019-04-12T02:15:40.603Z,99.90
2019-04-12T02:18:14.364Z,99.90
2019-04-12T02:20:48.009Z,99.90
2019-04-12T02:23:22.593Z,99.90
2019-04-12T02:25:56.920Z,99.90
2019-04-12T02:28:30.703Z,99.90
2019-04-12T02:31:05.215Z,99.90
2019-04-12T02:33:38.947Z,99.90
2019-04-12T02:36:12.514Z,99.90
2019-04-12T02:38:46.903Z,99.90
2019-04-12T02:41:21.511Z,99.90
2019-04-12T02:43:55.921Z,99.90
2019-04-12T02:46:33.236Z,99.90
2019-04-12T02:49:06.881Z,99.90
2019-04-12T02:51:58.335Z,99.90
2019-04-12T02:54:33.935Z,99.90
2019-04-12T02:57:10.519Z,99.90
2019-04-12T02:59:44.278Z,99.90
2019-04-12T03:02:17.871Z,99.90
2019-04-12T03:04:51.444Z,99.90
2019-04-12T03:07:24.966Z,99.90
2019-04-12T03:09:58.646Z,99.90
2019-04-12T03:12:32.922Z,99.90
2019-04-12T03:15:06.500Z,99.90
2019-04-12T03:17:40.110Z,99.90
2019-04-12T03:20:13.693Z,99.90
2019-04-12T03:22:47.517Z,99.90
2019-04-12T03:25:21.364Z,99.90
2019-04-12T03:27:55.043Z,99.90
2019-04-12T03:30:28.865Z,99.90
2019-04-12T03:33:02.567Z,99.90
2019-04-12T03:35:37.017Z,99.90
2019-04-12T03:38:10.622Z,99.90
2019-04-12T03:40:44.332Z,99.90
2019-04-12T03:43:17.952Z,99.90
2019-04-12T03:45:51.660Z,99.90
2019-04-12T03:48:25.391Z,99.90
2019-04-12T03:50:58.936Z,99.90
2019-04-12T03:53:32.529Z,99.90
2019-04-12T03:56:08.789Z,99.90
2019-04-12T03:58:39.901Z,99.90
2019-04-12T04:01:14.269Z,99.90
2019-04-12T04:03:47.875Z,99.90
2019-04-12T04:06:21.541Z,99.90
2019-04-12T04:08:55.140Z,99.90
2019-04-12T04:11:28.688Z,99.90
2019-04-12T04:14:02.415Z,99.90
2019-04-12T04:16:36.020Z,99.90
2019-04-12T04:19:10.492Z,99.90
2019-04-12T04:21:45.707Z,99.90
2019-04-12T04:24:20.591Z,99.90
2019-04-12T04:27:00.080Z,99.90
2019-04-12T04:29:49.359Z,99.90
2019-04-12T04:32:31.394Z,99.90
2019-04-12T04:35:05.101Z,99.90
2019-04-12T04:37:38.880Z,99.90
2019-04-12T04:40:12.722Z,99.90
2019-04-12T04:42:46.365Z,99.90
2019-04-12T04:45:20.144Z,99.90
2019-04-12T04:47:53.907Z,99.90
2019-04-12T04:50:27.575Z,99.90
2019-04-12T04:53:01.321Z,99.90
2019-04-12T04:55:34.953Z,99.90
2019-04-12T04:58:08.648Z,99.90
2019-04-12T05:00:42.360Z,99.90
2019-04-12T05:03:15.974Z,99.90
2019-04-12T05:05:49.620Z,99.90
2019-04-12T05:08:23.235Z,99.90
2019-04-12T05:10:57.032Z,99.90
2019-04-12T05:13:30.646Z,99.90
2019-04-12T05:16:04.410Z,99.90
2019-04-12T05:18:38.044Z,99.90
2019-04-12T05:21:11.626Z,99.90
2019-04-12T05:23:45.464Z,99.90
2019-04-12T05:26:19.232Z,99.90
2019-04-12T05:28:52.783Z,99.90
2019-04-12T05:31:26.500Z,99.90
2019-04-12T05:34:00.370Z,99.90
2019-04-12T05:36:34.071Z,99.90
2019-04-12T05:39:07.916Z,99.90
2019-04-12T05:41:41.502Z,99.90
2019-04-12T05:44:15.269Z,99.90
2019-04-12T05:46:52.940Z,99.90
2019-04-12T05:49:33.466Z,99.90
2019-04-12T05:52:07.749Z,99.90
2019-04-12T05:54:41.455Z,99.90
2019-04-12T05:57:15.028Z,99.90
2019-04-12T05:59:49.438Z,99.90
2019-04-12T06:02:35.158Z,99.90
2019-04-12T06:08:07.919Z,99.90
2019-04-12T06:10:41.479Z,99.90
2019-04-12T06:13:15.160Z,99.90
2019-04-12T06:15:49.691Z,99.90
2019-04-12T06:18:23.416Z,99.90
2019-04-12T06:21:07.021Z,99.90
2019-04-12T06:23:40.765Z,99.90
2019-04-12T06:26:16.575Z,99.90
2019-04-12T06:28:51.802Z,99.90
2019-04-12T06:31:25.553Z,99.90
2019-04-12T06:33:59.225Z,99.90
2019-04-12T06:36:33.581Z,99.90
2019-04-12T06:39:07.262Z,99.90
2019-04-12T06:41:40.982Z,99.90
2019-04-12T06:44:14.665Z,99.90
2019-04-12T06:46:48.358Z,99.90
2019-04-12T06:49:22.161Z,99.90
2019-04-12T06:51:55.852Z,99.90
2019-04-12T06:54:29.407Z,99.90
2019-04-12T06:57:03.221Z,99.90
2019-04-12T06:59:36.816Z,99.90
2019-04-12T07:02:13.226Z,99.90
2019-04-12T07:04:46.837Z,99.90
2019-04-12T07:07:20.631Z,99.90
2019-04-12T07:09:54.252Z,99.90
2019-04-12T07:12:28.075Z,99.90
2019-04-12T07:15:01.855Z,99.90
2019-04-12T07:17:35.598Z,99.90
2019-04-12T07:20:09.236Z,99.90
2019-04-12T07:22:42.999Z,99.90
2019-04-12T07:25:16.846Z,99.90
2019-04-12T07:27:51.208Z,99.90
2019-04-12T07:30:24.856Z,99.90
2019-04-12T07:32:58.546Z,99.90
2019-04-12T07:35:32.996Z,99.90
2019-04-12T07:38:06.702Z,99.90
2019-04-12T07:40:40.535Z,99.90
2019-04-12T07:43:14.909Z,99.90
2019-04-12T07:45:51.105Z,99.90
2019-04-12T07:48:26.181Z,99.90
2019-04-12T07:51:03.537Z,99.90
2019-04-12T07:53:38.180Z,99.90
2019-04-12T07:56:11.763Z,99.90
2019-04-12T07:58:46.417Z,99.90
2019-04-12T08:01:25.723Z,99.90
2019-04-12T08:04:05.465Z,99.90
2019-04-12T08:06:54.784Z,99.90
2019-04-12T08:09:29.288Z,99.90
2019-04-12T08:12:02.987Z,99.90
2019-04-12T08:14:36.570Z,99.90
2019-04-12T08:17:11.521Z,99.90
2019-04-12T08:19:44.989Z,99.90
2019-04-12T08:22:18.776Z,99.90
2019-04-12T08:24:52.442Z,99.90
2019-04-12T08:27:25.991Z,99.90
2019-04-12T08:30:00.445Z,99.90
2019-04-12T08:32:34.009Z,99.90
2019-04-12T08:35:07.595Z,99.90
2019-04-12T08:37:41.440Z,98.80
2019-04-12T08:40:15.298Z,97.60
2019-04-12T08:42:48.830Z,96.50
2019-04-12T08:45:22.445Z,95.90
2019-04-12T08:47:56.048Z,95.70
2019-04-12T08:50:30.595Z,93.70
2019-04-12T08:53:04.208Z,93.60
2019-04-12T08:55:37.816Z,93.50
2019-04-12T08:58:12.120Z,91.90
2019-04-12T09:00:45.740Z,91.90
2019-04-12T09:03:19.380Z,92.70
2019-04-12T09:05:53.159Z,91.80
2019-04-12T09:08:28.095Z,91.50
2019-04-12T09:11:01.814Z,91.50
2019-04-12T09:13:35.441Z,90.90
2019-04-12T09:16:09.171Z,90.60
2019-04-12T09:18:43.416Z,89.40
2019-04-12T09:21:27.911Z,87.40
2019-04-12T09:26:52.965Z,83.40
2019-04-12T09:29:26.782Z,80.60
2019-04-12T09:32:00.352Z,77.40
2019-04-12T09:34:34.116Z,71.00
2019-04-12T09:37:07.792Z,69.90
2019-04-12T09:39:41.379Z,68.80
2019-04-12T09:42:14.938Z,67.20
2019-04-12T09:44:48.505Z,68.30
2019-04-12T09:47:23.002Z,71.80
2019-04-12T09:49:56.729Z,71.70
2019-04-12T09:52:30.388Z,71.30
2019-04-12T09:55:04.180Z,72.50
2019-04-12T09:57:38.620Z,71.90
2019-04-12T10:00:12.264Z,71.90
2019-04-12T10:02:45.930Z,71.90
2019-04-12T10:05:20.287Z,71.40
2019-04-12T10:07:53.966Z,71.40
2019-04-12T10:10:27.641Z,66.90
2019-04-12T10:13:01.968Z,62.60
2019-04-12T10:15:35.698Z,62.50
2019-04-12T10:18:09.273Z,62.90
2019-04-12T10:20:42.799Z,60.70
2019-04-12T10:23:16.433Z,59.30
2019-04-12T10:25:50.199Z,57.70
2019-04-12T10:28:23.883Z,56.90
2019-04-12T10:30:57.463Z,55.60
2019-04-12T10:33:31.828Z,54.60
2019-04-12T10:36:05.560Z,54.60
2019-04-12T10:38:41.648Z,55.10
2019-04-12T10:41:16.119Z,53.60
2019-04-12T10:43:49.743Z,53.60
2019-04-12T10:46:24.210Z,52.80
2019-04-12T10:48:58.684Z,52.90
2019-04-12T10:51:38.164Z,52.80
2019-04-12T10:54:27.461Z,52.80
2019-04-12T10:57:01.134Z,53.00
2019-04-12T10:59:35.473Z,51.30
2019-04-12T11:02:09.069Z,51.20
2019-04-12T11:04:42.588Z,51.60
2019-04-12T11:07:16.164Z,50.90
2019-04-12T11:09:49.965Z,50.80
2019-04-12T11:12:23.635Z,50.50
2019-04-12T11:14:57.179Z,50.70
2019-04-12T11:17:30.771Z,52.40
2019-04-12T11:20:04.604Z,52.20
2019-04-12T11:22:38.220Z,51.60
2019-04-12T11:25:12.706Z,53.80
2019-04-12T11:27:46.283Z,53.70
2019-04-12T11:30:20.377Z,52.70
2019-04-12T11:32:54.175Z,52.50
2019-04-12T11:35:28.623Z,50.80
2019-04-12T11:38:03.189Z,49.40
2019-04-12T11:40:37.543Z,50.40
2019-04-12T11:43:11.296Z,50.40
2019-04-12T11:45:46.345Z,52.10
2019-04-12T11:48:19.416Z,53.80
2019-04-12T11:50:53.025Z,53.80
2019-04-12T11:53:27.343Z,54.90
2019-04-12T11:56:00.951Z,54.90
2019-04-12T11:58:47.632Z,54.10
2019-04-12T12:01:09.519Z,54.10
2019-04-12T12:03:45.760Z,54.40
2019-04-12T12:06:19.463Z,54.10
2019-04-12T12:08:58.812Z,54.70
2019-04-12T12:11:33.373Z,55.50
2019-04-12T12:14:09.633Z,56.20
2019-04-12T12:16:43.330Z,55.60
2019-04-12T12:19:17.904Z,54.70
2019-04-12T12:21:51.516Z,55.40
2019-04-12T12:24:25.298Z,55.80
2019-04-12T12:26:58.991Z,55.80
2019-04-12T12:29:42.394Z,56.70
2019-04-12T12:32:06.943Z,56.70
2019-04-12T12:34:40.803Z,57.20
2019-04-12T12:37:15.416Z,57.70
2019-04-12T12:39:49.782Z,58.00
2019-04-12T12:42:23.602Z,58.00
2019-04-12T12:44:58.044Z,59.60
2019-04-12T12:47:31.744Z,59.50
2019-04-12T12:50:05.431Z,59.50
2019-04-12T12:52:39.133Z,59.20
2019-04-12T12:55:12.732Z,58.60
2019-04-12T12:57:46.331Z,58.80
2019-04-12T13:00:20.246Z,59.20
2019-04-12T13:02:53.958Z,58.30
2019-04-12T13:05:27.553Z,58.60
2019-04-12T13:08:01.349Z,59.00
2019-04-12T13:10:35.876Z,58.50
2019-04-12T13:13:09.599Z,58.60
2019-04-12T13:15:43.246Z,58.70
2019-04-12T13:18:16.880Z,58.70
2019-04-12T13:20:50.694Z,58.50
2019-04-12T13:23:24.264Z,58.90
2019-04-12T13:25:57.945Z,58.80
2019-04-12T13:28:31.621Z,58.20
2019-04-12T13:31:11.580Z,58.40
2019-04-12T13:33:45.961Z,58.00
2019-04-12T13:36:35.350Z,58.00
2019-04-12T13:39:09.558Z,58.00
2019-04-12T13:41:43.255Z,58.50
2019-04-12T13:44:16.846Z,58.30
2019-04-12T13:46:50.380Z,57.20
2019-04-12T13:49:23.983Z,57.90
2019-04-12T13:51:57.727Z,57.70
2019-04-12T13:54:32.255Z,59.20
2019-04-12T13:57:05.941Z,58.70
2019-04-12T13:59:39.740Z,58.60
2019-04-12T14:02:13.302Z,58.70
2019-04-12T14:04:46.936Z,58.50
2019-04-12T14:07:20.627Z,59.00
2019-04-12T14:09:54.428Z,58.20
2019-04-12T14:12:28.331Z,58.00
2019-04-12T14:15:02.155Z,57.80
2019-04-12T14:17:36.728Z,58.60
2019-04-12T14:20:10.326Z,58.10
2019-04-12T14:22:44.180Z,58.70
2019-04-12T14:25:17.821Z,58.20
2019-04-12T14:27:51.575Z,58.00
2019-04-12T14:30:32.981Z,58.70
2019-04-12T14:33:06.235Z,58.70
2019-04-12T14:35:43.950Z,58.70
2019-04-12T14:38:17.735Z,59.20
2019-04-12T14:40:51.329Z,59.50
2019-04-12T14:43:27.590Z,59.10
2019-04-12T14:46:03.858Z,60.10
2019-04-12T14:48:37.631Z,59.80
2019-04-12T14:51:11.436Z,59.30
2019-04-12T14:53:45.275Z,60.00
2019-04-12T14:56:19.117Z,59.60
2019-04-12T14:58:53.592Z,61.20
2019-04-12T15:01:27.331Z,61.20
2019-04-12T15:04:01.084Z,60.90
2019-04-12T15:06:35.614Z,61.20
2019-04-12T15:09:09.255Z,61.20
2019-04-12T15:11:42.864Z,61.20
2019-04-12T15:14:16.456Z,60.80
2019-04-12T15:16:50.128Z,60.90
2019-04-12T15:19:23.755Z,61.20
2019-04-12T15:21:58.260Z,61.80
2019-04-12T15:24:32.260Z,61.80
2019-04-12T15:27:05.919Z,61.70
2019-04-12T15:29:39.669Z,61.20
2019-04-12T15:32:13.442Z,61.00
2019-04-12T15:34:47.117Z,61.80
2019-04-12T15:37:20.758Z,61.80
2019-04-12T15:39:54.412Z,61.80
2019-04-12T15:42:28.031Z,61.60
2019-04-12T15:45:01.689Z,62.40
2019-04-12T15:47:35.531Z,61.80
2019-04-12T15:50:09.092Z,62.60
2019-04-12T15:52:42.596Z,62.00
2019-04-12T15:55:16.252Z,62.00
2019-04-12T15:57:49.910Z,61.50
2019-04-12T16:00:44.195Z,62.60
2019-04-12T16:03:17.952Z,62.10
2019-04-12T16:05:51.836Z,62.40
2019-04-12T16:08:25.500Z,62.30
2019-04-12T16:11:08.466Z,62.70
2019-04-12T16:14:07.909Z,62.20
2019-04-12T16:16:58.084Z,62.50
2019-04-12T16:19:31.955Z,62.50
2019-04-12T16:22:05.681Z,62.50
2019-04-12T16:24:39.418Z,62.50
2019-04-12T16:27:13.157Z,63.30
2019-04-12T16:30:02.650Z,64.10
2019-04-12T16:32:36.849Z,64.70
2019-04-12T16:35:17.017Z,64.80
2019-04-12T16:37:50.648Z,64.80
2019-04-12T16:40:24.423Z,64.60
2019-04-12T16:42:58.011Z,63.70
2019-04-12T16:45:31.559Z,63.50
2019-04-12T16:48:06.202Z,63.40
2019-04-12T16:50:40.700Z,64.80
2019-04-12T16:53:14.314Z,64.80
2019-04-12T16:55:48.677Z,65.10
2019-04-12T16:58:23.159Z,65.10
2019-04-12T17:00:56.857Z,65.10
2019-04-12T17:03:31.207Z,65.40
2019-04-12T17:06:04.852Z,65.50
2019-04-12T17:08:38.510Z,64.80
2019-04-12T17:11:12.851Z,65.20
2019-04-12T17:13:46.431Z,65.20
2019-04-12T17:16:19.990Z,65.40
2019-04-12T17:18:53.688Z,65.20
2019-04-12T17:21:28.006Z,65.80
2019-04-12T17:24:01.615Z,65.80
2019-04-12T17:26:35.338Z,65.70
2019-04-12T17:29:09.109Z,65.90
2019-04-12T17:31:49.043Z,65.50
2019-04-12T17:34:16.387Z,65.60
2019-04-12T17:36:50.201Z,66.50
2019-04-12T17:39:24.081Z,65.70
2019-04-12T17:41:57.825Z,65.70
2019-04-12T17:44:31.497Z,66.00
2019-04-12T17:47:05.213Z,66.00
2019-04-12T17:49:40.875Z,66.30
2019-04-12T17:52:15.047Z,66.40
2019-04-12T17:54:48.829Z,67.10
2019-04-12T17:57:23.435Z,66.70
2019-04-12T17:59:57.228Z,66.70
2019-04-12T18:02:36.729Z,67.10
2019-04-12T18:05:11.155Z,67.60
2019-04-12T18:07:44.903Z,67.60
2019-04-12T18:10:18.582Z,67.80
2019-04-12T18:12:52.286Z,67.90
2019-04-12T18:15:26.771Z,68.10
2019-04-12T18:18:00.472Z,68.10
2019-04-12T18:20:34.175Z,68.50
2019-04-12T18:23:07.946Z,68.60
2019-04-12T18:25:41.491Z,67.80
2019-04-12T18:28:15.973Z,67.60
2019-04-12T18:30:49.626Z,67.50
2019-04-12T18:33:23.209Z,67.80
2019-04-12T18:35:56.965Z,68.00
2019-04-12T18:38:30.694Z,68.00
2019-04-12T18:41:04.564Z,68.10
2019-04-12T18:43:39.201Z,67.50
2019-04-12T18:46:12.963Z,67.40
2019-04-12T18:48:46.728Z,67.50
2019-04-12T18:51:21.249Z,68.10
2019-04-12T18:53:54.970Z,68.00
2019-04-12T18:56:28.619Z,67.40
2019-04-12T18:59:02.232Z,67.70
2019-04-12T19:01:35.892Z,67.60
2019-04-12T19:04:09.823Z,68.10
2019-04-12T19:06:43.017Z,68.60
2019-04-12T19:09:17.320Z,68.40
2019-04-12T19:11:51.683Z,67.80
2019-04-12T19:14:25.357Z,67.70
2019-04-12T19:16:59.738Z,67.80
2019-04-12T19:19:33.372Z,67.80
2019-04-12T19:22:07.203Z,67.80
2019-04-12T19:24:40.891Z,67.90
2019-04-12T19:27:14.547Z,68.00
2019-04-12T19:29:48.204Z,67.50
2019-04-12T19:32:22.891Z,67.50
2019-04-12T19:35:02.452Z,67.90
2019-04-12T19:37:38.731Z,67.90
2019-04-12T19:40:18.918Z,68.60
2019-04-12T19:42:52.455Z,68.60
2019-04-12T19:45:25.993Z,67.90
2019-04-12T19:47:59.702Z,67.50
2019-04-12T19:50:34.025Z,66.70
2019-04-12T19:53:07.702Z,66.60
2019-04-12T19:55:41.265Z,67.30
2019-04-12T19:58:14.862Z,67.70
2019-04-12T20:00:48.558Z,67.80
2019-04-12T20:03:22.291Z,68.20
2019-04-12T20:05:55.976Z,67.70
2019-04-12T20:08:30.332Z,67.90
2019-04-12T20:11:04.668Z,67.40
2019-04-12T20:13:38.351Z,67.40
2019-04-12T20:16:12.040Z,68.30
2019-04-12T20:18:45.877Z,68.40
2019-04-12T20:21:19.516Z,69.10
2019-04-12T20:23:53.319Z,68.10
2019-04-12T20:26:27.847Z,69.00
2019-04-12T20:29:01.596Z,68.90
2019-04-12T20:31:35.244Z,69.10
2019-04-12T20:34:09.028Z,68.40
2019-04-12T20:36:42.669Z,68.70
2019-04-12T20:39:16.334Z,69.10
2019-04-12T20:41:50.767Z,68.70
2019-04-12T20:44:26.940Z,68.30
2019-04-12T20:46:58.946Z,68.30
2019-04-12T20:49:32.710Z,69.00
2019-04-12T20:52:07.080Z,68.90
2019-04-12T20:54:40.807Z,68.90
2019-04-12T20:57:15.114Z,69.40
2019-04-12T20:59:49.860Z,69.70
2019-04-12T21:02:29.897Z,69.70
2019-04-12T21:04:57.166Z,69.70
2019-04-12T21:07:30.932Z,69.70
2019-04-12T21:10:04.623Z,70.00
2019-04-12T21:12:38.248Z,69.60
2019-04-12T21:15:11.793Z,70.60
2019-04-12T21:17:46.383Z,70.20
2019-04-12T21:20:20.123Z,70.20
2019-04-12T21:22:53.915Z,70.70
2019-04-12T21:25:27.539Z,70.90
2019-04-12T21:28:01.309Z,71.00
2019-04-12T21:30:35.776Z,70.50
2019-04-12T21:33:09.598Z,70.50
2019-04-12T21:35:43.273Z,71.20
2019-04-12T21:38:16.886Z,71.30
2019-04-12T21:40:50.687Z,71.80
2019-04-12T21:43:24.452Z,73.10
2019-04-12T21:45:57.963Z,74.00
2019-04-12T21:48:31.567Z,75.70
2019-04-12T21:51:05.246Z,76.70
2019-04-12T21:53:38.837Z,76.60
2019-04-12T21:56:12.636Z,76.60
2019-04-12T21:58:47.286Z,77.10
2019-04-12T22:01:20.945Z,77.10
2019-04-12T22:03:54.584Z,78.00
2019-04-12T22:06:28.330Z,76.10
2019-04-12T22:09:02.162Z,75.80
2019-04-12T22:11:35.903Z,76.20
2019-04-12T22:14:14.751Z,76.50
2019-04-12T22:16:43.103Z,75.50
2019-04-12T22:19:16.879Z,74.90
2019-04-12T22:21:51.604Z,73.20
2019-04-12T22:24:26.039Z,72.60
2019-04-12T22:26:59.775Z,72.50
2019-04-12T22:29:33.558Z,72.90
2019-04-12T22:32:07.164Z,72.20
2019-04-12T22:34:40.913Z,72.40
2019-04-12T22:37:14.581Z,72.00
2019-04-12T22:39:48.172Z,72.00
2019-04-12T22:42:21.785Z,72.50
2019-04-12T22:44:55.469Z,72.20
2019-04-12T22:47:29.733Z,72.90
2019-04-12T22:50:03.582Z,72.90
2019-04-12T22:52:37.344Z,73.80
2019-04-12T22:55:18.642Z,75.80
2019-04-12T22:57:52.318Z,75.80
2019-04-12T23:00:25.917Z,75.30
2019-04-12T23:03:00.402Z,76.50
2019-04-12T23:05:34.045Z,76.30
2019-04-12T23:08:07.696Z,76.50
2019-04-12T23:10:41.419Z,77.10
2019-04-12T23:13:15.018Z,76.70
2019-04-12T23:15:49.560Z,77.30
2019-04-12T23:18:24.161Z,77.70
2019-04-12T23:20:57.973Z,77.60
2019-04-12T23:23:31.507Z,78.20
2019-04-12T23:26:05.253Z,78.40
2019-04-12T23:28:38.909Z,79.10
2019-04-12T23:31:16.413Z,79.40
2019-04-12T23:34:02.366Z,79.30
2019-04-12T23:36:35.934Z,79.30
2019-04-12T23:39:09.697Z,78.60
2019-04-12T23:41:43.274Z,79.10
2019-04-12T23:44:17.791Z,79.50
2019-04-12T23:46:51.688Z,78.80
2019-04-12T23:49:25.455Z,78.80
2019-04-12T23:51:59.268Z,78.20
2019-04-12T23:54:32.935Z,78.10
2019-04-12T23:57:06.614Z,78.70
2019-04-12T23:59:41.138Z,79.00
